createdAt,value
2023-03-25T00:00:24.455Z,7.00
2023-03-25T00:01:24.440Z,5.70
2023-03-25T00:02:24.479Z,6.70
2023-03-25T00:03:24.733Z,8.70
2023-03-25T00:04:24.401Z,5.90
2023-03-25T00:05:24.367Z,8.00
2023-03-25T00:06:24.560Z,8.50
2023-03-25T00:07:24.583Z,10.90
2023-03-25T00:08:24.628Z,8.90
2023-03-25T00:09:24.586Z,7.30
2023-03-25T00:10:24.316Z,8.30
2023-03-25T00:11:24.545Z,8.40
2023-03-25T00:12:24.516Z,6.90
2023-03-25T00:13:24.281Z,7.20
2023-03-25T00:14:24.700Z,6.50
2023-03-25T00:15:24.510Z,7.80
2023-03-25T00:16:24.530Z,6.90
2023-03-25T00:17:24.299Z,9.00
2023-03-25T00:18:24.251Z,6.50
2023-03-25T00:19:24.434Z,8.10
2023-03-25T00:20:24.783Z,8.10
2023-03-25T00:21:24.223Z,9.60
2023-03-25T00:22:24.188Z,7.60
2023-03-25T00:23:24.177Z,8.60
2023-03-25T00:24:24.180Z,6.30
2023-03-25T00:25:24.168Z,7.80
2023-03-25T00:26:24.133Z,9.20
2023-03-25T00:27:24.147Z,6.20
2023-03-25T00:28:24.111Z,7.80
2023-03-25T00:29:24.124Z,7.70
2023-03-25T00:30:24.103Z,7.30
2023-03-25T00:31:24.075Z,8.70
2023-03-25T00:32:24.147Z,9.70
2023-03-25T00:33:24.049Z,10.30
2023-03-25T00:34:24.046Z,8.50
2023-03-25T00:35:24.375Z,8.30
2023-03-25T00:36:24.034Z,8.40
2023-03-25T00:37:24.021Z,7.50
2023-03-25T00:38:24.015Z,7.30
2023-03-25T00:39:23.980Z,7.20
2023-03-25T00:40:24.014Z,9.10
2023-03-25T00:41:23.971Z,9.50
2023-03-25T00:42:23.971Z,8.30
2023-03-25T00:43:23.949Z,8.30
2023-03-25T00:44:23.929Z,7.30
2023-03-25T00:45:23.954Z,9.10
2023-03-25T00:46:23.999Z,7.60
2023-03-25T00:47:23.936Z,9.40
2023-03-25T00:48:23.905Z,10.60
2023-03-25T00:49:23.890Z,8.90
2023-03-25T00:50:23.864Z,9.70
2023-03-25T00:51:23.879Z,8.00
2023-03-25T00:52:23.876Z,8.00
2023-03-25T00:53:23.838Z,8.90
2023-03-25T00:54:23.871Z,6.70
2023-03-25T00:55:23.910Z,7.10
2023-03-25T00:56:23.977Z,10.60
2023-03-25T00:57:23.808Z,7.00
2023-03-25T00:58:23.781Z,9.10
2023-03-25T00:59:23.788Z,8.90
2023-03-25T01:00:23.756Z,8.10
2023-03-25T01:01:23.824Z,8.60
2023-03-25T01:02:23.841Z,8.40
2023-03-25T01:03:23.903Z,8.20
2023-03-25T01:04:23.713Z,10.30
2023-03-25T01:05:23.695Z,8.30
2023-03-25T01:06:23.725Z,7.10
2023-03-25T01:07:23.687Z,10.00
2023-03-25T01:08:23.708Z,7.20
2023-03-25T01:09:23.673Z,8.80
2023-03-25T01:10:23.659Z,9.90
2023-03-25T01:11:23.780Z,8.10
2023-03-25T01:12:23.632Z,9.30
2023-03-25T01:13:23.642Z,8.70
2023-03-25T01:14:23.665Z,9.50
2023-03-25T01:15:23.593Z,10.10
2023-03-25T01:16:23.620Z,10.30
2023-03-25T01:17:23.597Z,9.20
2023-03-25T01:18:23.856Z,9.60
2023-03-25T01:19:23.554Z,8.00
2023-03-25T01:20:23.531Z,5.80
2023-03-25T01:21:23.516Z,8.30
2023-03-25T01:22:23.534Z,7.90
2023-03-25T01:23:23.512Z,8.40
2023-03-25T01:24:23.510Z,7.80
2023-03-25T01:25:23.479Z,6.80
2023-03-25T01:26:23.490Z,8.20
2023-03-25T01:27:23.540Z,6.70
2023-03-25T01:28:23.481Z,8.60
2023-03-25T01:29:23.470Z,9.30
2023-03-25T01:30:23.455Z,10.20
2023-03-25T01:31:23.432Z,7.70
2023-03-25T01:32:23.510Z,9.50
2023-03-25T01:33:23.372Z,8.90
2023-03-25T01:34:23.670Z,8.50
2023-03-25T01:35:23.516Z,9.50
2023-03-25T01:36:23.348Z,8.20
2023-03-25T01:37:23.366Z,7.90
2023-03-25T01:38:23.358Z,7.00
2023-03-25T01:39:23.487Z,10.00
2023-03-25T01:40:23.309Z,10.40
2023-03-25T01:41:23.287Z,6.60
2023-03-25T01:42:23.296Z,8.80
2023-03-25T01:43:23.273Z,9.60
2023-03-25T01:44:23.257Z,8.60
2023-03-25T01:45:23.280Z,7.90
2023-03-25T01:46:23.448Z,8.10
2023-03-25T01:47:23.311Z,8.70
2023-03-25T01:48:23.220Z,8.60
2023-03-25T01:49:23.202Z,7.80
2023-03-25T01:50:23.205Z,6.60
2023-03-25T01:51:23.184Z,8.00
2023-03-25T01:52:23.170Z,8.80
2023-03-25T01:53:23.491Z,9.50
2023-03-25T01:54:23.143Z,7.80
2023-03-25T01:55:23.135Z,10.50
2023-03-25T01:56:23.218Z,11.00
2023-03-25T01:57:23.116Z,5.60
2023-03-25T01:58:23.113Z,8.80
2023-03-25T01:59:23.137Z,7.90
2023-03-25T02:00:23.245Z,7.20
2023-03-25T02:01:23.113Z,7.70
2023-03-25T02:02:23.072Z,8.00
2023-03-25T02:03:23.091Z,6.50
2023-03-25T02:04:23.059Z,9.10
2023-03-25T02:05:23.074Z,9.90
2023-03-25T02:06:23.063Z,8.70
2023-03-25T02:07:23.020Z,7.90
2023-03-25T02:08:23.033Z,7.00
2023-03-25T02:09:23.002Z,9.10
2023-03-25T02:10:22.977Z,6.90
2023-03-25T02:11:23.039Z,8.70
2023-03-25T02:12:22.949Z,6.20
2023-03-25T02:13:22.944Z,6.10
2023-03-25T02:14:22.923Z,7.40
2023-03-25T02:15:22.949Z,6.70
2023-03-25T02:16:22.960Z,9.10
2023-03-25T02:17:22.984Z,5.90
2023-03-25T02:18:22.890Z,6.80
2023-03-25T02:19:22.872Z,6.50
2023-03-25T02:20:22.862Z,7.50
2023-03-25T02:21:23.062Z,7.90
2023-03-25T02:22:22.845Z,8.00
2023-03-25T02:23:22.861Z,6.60
2023-03-25T02:24:22.814Z,6.90
2023-03-25T02:25:22.795Z,7.20
2023-03-25T02:26:22.802Z,9.00
2023-03-25T02:27:22.790Z,8.70
2023-03-25T02:28:22.772Z,7.50
2023-03-25T02:29:22.768Z,6.10
2023-03-25T02:30:22.753Z,7.40
2023-03-25T02:31:22.805Z,9.20
2023-03-25T02:32:22.745Z,6.80
2023-03-25T02:33:22.715Z,7.90
2023-03-25T02:34:23.008Z,5.90
2023-03-25T02:35:22.728Z,5.60
2023-03-25T02:36:22.703Z,5.40
2023-03-25T02:37:22.679Z,7.90
2023-03-25T02:38:22.664Z,9.20
2023-03-25T02:39:22.660Z,7.40
2023-03-25T02:40:22.668Z,7.80
2023-03-25T02:41:22.629Z,7.80
2023-03-25T02:42:22.810Z,9.20
2023-03-25T02:43:22.598Z,6.70
2023-03-25T02:44:22.817Z,8.00
2023-03-25T02:45:22.577Z,7.90
2023-03-25T02:46:22.600Z,9.80
2023-03-25T02:47:22.649Z,8.80
2023-03-25T02:48:22.551Z,6.70
2023-03-25T02:49:22.714Z,6.30
2023-03-25T02:50:22.532Z,11.20
2023-03-25T02:51:22.540Z,5.60
2023-03-25T02:52:22.510Z,7.50
2023-03-25T02:53:22.529Z,7.60
2023-03-25T02:54:22.465Z,6.10
2023-03-25T02:55:22.471Z,6.90
2023-03-25T02:56:22.463Z,9.20
2023-03-25T02:57:22.440Z,6.60
2023-03-25T02:58:22.438Z,7.50
2023-03-25T02:59:22.456Z,6.20
2023-03-25T03:00:22.408Z,7.40
2023-03-25T03:01:22.420Z,5.20
2023-03-25T03:02:22.569Z,6.40
2023-03-25T03:03:22.470Z,8.70
2023-03-25T03:04:22.367Z,6.90
2023-03-25T03:05:22.389Z,7.40
2023-03-25T03:06:22.551Z,7.80
2023-03-25T03:07:22.326Z,9.30
2023-03-25T03:08:22.311Z,7.50
2023-03-25T03:09:22.309Z,6.00
2023-03-25T03:10:22.523Z,5.80
2023-03-25T03:11:22.346Z,7.90
2023-03-25T03:12:22.266Z,7.00
2023-03-25T03:13:22.274Z,6.60
2023-03-25T03:14:22.479Z,6.10
2023-03-25T03:15:22.494Z,6.90
2023-03-25T03:16:22.291Z,8.00
2023-03-25T03:17:22.403Z,5.40
2023-03-25T03:18:22.288Z,6.60
2023-03-25T03:19:22.218Z,8.50
2023-03-25T03:20:22.201Z,5.90
2023-03-25T03:21:22.175Z,8.20
2023-03-25T03:22:22.191Z,6.40
2023-03-25T03:23:22.425Z,6.00
2023-03-25T03:24:22.150Z,7.20
2023-03-25T03:25:22.163Z,6.90
2023-03-25T03:26:22.137Z,6.70
2023-03-25T03:27:22.109Z,5.90
2023-03-25T03:28:22.113Z,7.90
2023-03-25T03:29:22.105Z,7.00
2023-03-25T03:30:22.165Z,5.30
2023-03-25T03:31:48.442Z,8.00
2023-03-25T03:32:22.201Z,11.00
2023-03-25T03:33:22.059Z,7.40
2023-03-25T03:34:22.056Z,8.60
2023-03-25T03:35:22.075Z,5.80
2023-03-25T03:36:22.033Z,5.80
2023-03-25T03:37:22.012Z,5.30
2023-03-25T03:38:21.996Z,6.20
2023-03-25T03:39:21.989Z,6.40
2023-03-25T03:40:21.964Z,7.50
2023-03-25T03:41:21.963Z,6.20
2023-03-25T03:42:21.954Z,7.40
2023-03-25T03:43:21.941Z,8.50
2023-03-25T03:44:21.928Z,7.60
2023-03-25T03:45:22.117Z,6.50
2023-03-25T03:46:29.948Z,7.60
2023-03-25T03:47:21.876Z,7.60
2023-03-25T03:48:21.871Z,5.90
2023-03-25T03:49:21.861Z,6.80
2023-03-25T03:50:21.898Z,6.20
2023-03-25T03:51:21.836Z,6.60
2023-03-25T03:52:21.872Z,6.30
2023-03-25T03:53:21.847Z,4.80
2023-03-25T03:54:21.807Z,5.50
2023-03-25T03:55:21.815Z,5.30
2023-03-25T03:56:21.775Z,6.00
2023-03-25T03:57:21.801Z,5.80
2023-03-25T03:58:21.820Z,6.00
2023-03-25T03:59:21.753Z,5.60
2023-03-25T04:00:21.766Z,5.50
2023-03-25T04:01:21.752Z,4.60
2023-03-25T04:02:21.748Z,6.30
2023-03-25T04:03:21.769Z,6.30
2023-03-25T04:04:21.738Z,5.20
2023-03-25T04:05:21.686Z,5.90
2023-03-25T04:06:21.677Z,4.50
2023-03-25T04:07:21.665Z,8.10
2023-03-25T04:08:21.663Z,7.80
2023-03-25T04:09:21.646Z,6.60
2023-03-25T04:10:21.663Z,8.50
2023-03-25T04:11:21.630Z,5.10
2023-03-25T04:12:21.640Z,5.80
2023-03-25T04:13:21.619Z,4.70
2023-03-25T04:14:21.626Z,4.20
2023-03-25T04:15:21.611Z,7.20
2023-03-25T04:16:21.613Z,6.50
2023-03-25T04:17:21.590Z,5.40
2023-03-25T04:18:21.537Z,6.10
2023-03-25T04:19:21.564Z,4.60
2023-03-25T04:20:21.511Z,6.50
2023-03-25T04:21:21.509Z,5.10
2023-03-25T04:22:21.509Z,6.30
2023-03-25T04:23:21.522Z,4.00
2023-03-25T04:24:21.475Z,5.40
2023-03-25T04:25:21.599Z,4.10
2023-03-25T04:26:21.448Z,5.40
2023-03-25T04:27:21.432Z,4.90
2023-03-25T04:28:21.452Z,4.10
2023-03-25T04:29:21.420Z,7.70
2023-03-25T04:30:21.453Z,6.10
2023-03-25T04:31:21.404Z,5.20
2023-03-25T04:32:21.414Z,5.60
2023-03-25T04:33:21.374Z,9.20
2023-03-25T04:34:21.379Z,6.50
2023-03-25T04:35:21.348Z,7.40
2023-03-25T04:36:21.369Z,5.80
2023-03-25T04:37:21.350Z,5.80
2023-03-25T04:38:21.321Z,5.90
2023-03-25T04:39:21.309Z,6.20
2023-03-25T04:40:21.322Z,5.40
2023-03-25T04:41:21.307Z,6.30
2023-03-25T04:42:21.295Z,5.20
2023-03-25T04:43:21.259Z,8.30
2023-03-25T04:44:21.263Z,6.70
2023-03-25T04:45:21.268Z,6.00
2023-03-25T04:46:21.349Z,5.40
2023-03-25T04:47:21.247Z,6.00
2023-03-25T04:48:21.232Z,7.20
2023-03-25T04:49:21.454Z,6.10
2023-03-25T04:50:21.227Z,10.30
2023-03-25T04:51:21.184Z,4.80
2023-03-25T04:52:21.185Z,4.90
2023-03-25T04:53:21.229Z,4.40
2023-03-25T04:54:21.143Z,5.30
2023-03-25T04:55:21.145Z,7.60
2023-03-25T04:56:21.150Z,7.00
2023-03-25T04:57:21.129Z,5.90
2023-03-25T04:58:21.136Z,4.50
2023-03-25T04:59:21.115Z,4.70
2023-03-25T05:00:21.098Z,5.00
2023-03-25T05:01:21.099Z,6.60
2023-03-25T05:02:21.054Z,7.70
2023-03-25T05:03:21.037Z,5.30
2023-03-25T05:04:21.134Z,5.30
2023-03-25T05:05:21.036Z,6.30
2023-03-25T05:06:21.011Z,3.30
2023-03-25T05:07:20.988Z,4.60
2023-03-25T05:08:21.006Z,5.90
2023-03-25T05:09:20.962Z,7.30
2023-03-25T05:10:21.000Z,7.30
2023-03-25T05:11:20.933Z,8.90
2023-03-25T05:12:20.932Z,3.70
2023-03-25T05:13:20.925Z,4.30
2023-03-25T05:14:20.921Z,6.40
2023-03-25T05:15:20.896Z,5.30
2023-03-25T05:16:20.978Z,7.90
2023-03-25T05:17:20.889Z,6.40
2023-03-25T05:18:20.875Z,6.60
2023-03-25T05:19:21.083Z,5.90
2023-03-25T05:20:20.848Z,5.80
2023-03-25T05:21:20.882Z,5.80
2023-03-25T05:22:20.913Z,5.50
2023-03-25T05:23:20.858Z,4.60
2023-03-25T05:24:20.817Z,7.60
2023-03-25T05:25:20.785Z,5.50
2023-03-25T05:26:20.885Z,5.20
2023-03-25T05:27:20.821Z,4.40
2023-03-25T05:28:20.787Z,3.90
2023-03-25T05:29:20.748Z,5.70
2023-03-25T05:30:20.727Z,6.30
2023-03-25T05:31:20.770Z,5.10
2023-03-25T05:32:20.734Z,5.20
2023-03-25T05:33:20.693Z,4.20
2023-03-25T05:34:20.820Z,4.20
2023-03-25T05:35:20.673Z,8.10
2023-03-25T05:36:20.664Z,6.10
2023-03-25T05:37:20.672Z,6.20
2023-03-25T05:38:20.634Z,4.70
2023-03-25T05:39:20.630Z,7.20
2023-03-25T05:40:20.652Z,5.50
2023-03-25T05:41:20.606Z,5.90
2023-03-25T05:42:20.583Z,6.70
2023-03-25T05:43:20.618Z,5.00
2023-03-25T05:44:20.582Z,6.10
2023-03-25T05:45:20.566Z,5.50
2023-03-25T05:46:20.951Z,6.70
2023-03-25T05:47:20.549Z,5.50
2023-03-25T05:48:20.549Z,4.80
2023-03-25T05:49:20.568Z,6.50
2023-03-25T05:50:20.499Z,4.80
2023-03-25T05:51:20.485Z,5.40
2023-03-25T05:52:20.491Z,6.60
2023-03-25T05:53:20.488Z,4.90
2023-03-25T05:54:20.466Z,5.10
2023-03-25T05:55:20.983Z,5.20
2023-03-25T05:56:20.454Z,7.60
2023-03-25T05:57:20.465Z,4.50
2023-03-25T05:58:20.486Z,8.90
2023-03-25T05:59:20.423Z,5.30
2023-03-25T06:00:20.460Z,6.50
2023-03-25T06:01:31.914Z,6.00
2023-03-25T06:02:20.487Z,6.70
2023-03-25T06:03:20.428Z,8.20
2023-03-25T06:04:20.408Z,6.60
2023-03-25T06:05:20.347Z,5.90
2023-03-25T06:06:20.344Z,7.20
2023-03-25T06:07:20.333Z,7.30
2023-03-25T06:08:20.323Z,6.60
2023-03-25T06:09:20.296Z,7.20
2023-03-25T06:10:20.293Z,5.80
2023-03-25T06:11:20.277Z,8.60
2023-03-25T06:12:20.263Z,5.10
2023-03-25T06:13:20.287Z,11.50
2023-03-25T06:14:20.230Z,8.10
2023-03-25T06:15:20.229Z,7.10
2023-03-25T06:16:20.315Z,4.10
2023-03-25T06:17:20.216Z,8.30
2023-03-25T06:18:20.203Z,6.00
2023-03-25T06:19:20.213Z,7.20
2023-03-25T06:20:20.187Z,6.50
2023-03-25T06:21:20.152Z,8.80
2023-03-25T06:22:20.146Z,7.50
2023-03-25T06:23:20.324Z,7.20
2023-03-25T06:24:20.180Z,6.20
2023-03-25T06:25:20.128Z,6.60
2023-03-25T06:26:20.103Z,8.00
2023-03-25T06:27:20.089Z,8.00
2023-03-25T06:28:20.116Z,7.60
2023-03-25T06:29:20.079Z,10.50
2023-03-25T06:30:20.065Z,8.00
2023-03-25T06:31:20.092Z,6.80
2023-03-25T06:32:20.037Z,5.60
2023-03-25T06:33:43.385Z,7.10
2023-03-25T06:34:21.619Z,10.20
2023-03-25T06:35:20.697Z,7.40
2023-03-25T06:36:20.063Z,7.20
2023-03-25T06:37:20.000Z,6.20
2023-03-25T06:38:19.976Z,7.60
2023-03-25T06:39:19.974Z,7.90
2023-03-25T06:40:19.992Z,6.20
2023-03-25T06:41:19.939Z,7.50
2023-03-25T06:42:19.925Z,7.20
2023-03-25T06:43:19.917Z,8.90
2023-03-25T06:44:24.689Z,10.10
2023-03-25T06:45:19.899Z,9.10
2023-03-25T06:46:19.911Z,7.20
2023-03-25T06:47:19.958Z,7.30
2023-03-25T06:48:19.859Z,9.70
2023-03-25T06:49:19.864Z,7.70
2023-03-25T06:50:19.843Z,11.20
2023-03-25T06:51:19.835Z,6.20
2023-03-25T06:52:19.850Z,7.20
2023-03-25T06:53:19.839Z,4.90
2023-03-25T06:54:19.808Z,6.90
2023-03-25T06:55:19.801Z,8.50
2023-03-25T06:56:19.774Z,6.20
2023-03-25T06:57:19.764Z,7.50
2023-03-25T06:58:19.751Z,7.40
2023-03-25T06:59:19.770Z,7.40
2023-03-25T07:00:19.722Z,8.80
2023-03-25T07:01:19.776Z,8.90
2023-03-25T07:02:19.703Z,7.10
2023-03-25T07:03:19.708Z,9.40
2023-03-25T07:04:19.788Z,6.90
2023-03-25T07:05:19.713Z,6.60
2023-03-25T07:06:19.665Z,9.20
2023-03-25T07:07:19.670Z,9.20
2023-03-25T07:08:19.637Z,7.80
2023-03-25T07:09:19.641Z,7.30
2023-03-25T07:10:19.617Z,8.30
2023-03-25T07:11:19.621Z,9.90
2023-03-25T07:12:19.603Z,7.20
2023-03-25T07:13:19.583Z,8.00
2023-03-25T07:14:19.594Z,6.50
2023-03-25T07:15:19.553Z,7.40
2023-03-25T07:16:19.643Z,9.30
2023-03-25T07:17:19.535Z,8.80
2023-03-25T07:18:19.526Z,6.20
2023-03-25T07:19:19.558Z,8.70
2023-03-25T07:20:19.520Z,7.40
2023-03-25T07:21:19.511Z,9.30
2023-03-25T07:22:19.496Z,7.10
2023-03-25T07:23:19.486Z,9.90
2023-03-25T07:24:19.486Z,8.40
2023-03-25T07:25:19.477Z,8.00
2023-03-25T07:26:19.445Z,7.60
2023-03-25T07:27:19.432Z,7.20
2023-03-25T07:28:19.438Z,9.40
2023-03-25T07:29:19.447Z,8.00
2023-03-25T07:30:19.421Z,7.90
2023-03-25T07:31:19.426Z,12.00
2023-03-25T07:32:19.398Z,5.60
2023-03-25T07:33:19.392Z,7.70
2023-03-25T07:34:19.390Z,7.60
2023-03-25T07:35:19.373Z,6.70
2023-03-25T07:36:19.339Z,6.40
2023-03-25T07:37:19.322Z,6.60
2023-03-25T07:38:19.361Z,5.00
2023-03-25T07:39:19.358Z,6.50
2023-03-25T07:40:19.340Z,7.20
2023-03-25T07:41:19.326Z,6.30
2023-03-25T07:42:19.288Z,7.50
2023-03-25T07:43:19.319Z,9.30
2023-03-25T07:44:19.278Z,5.40
2023-03-25T07:45:19.258Z,7.60
2023-03-25T07:46:19.285Z,4.50
2023-03-25T07:47:19.230Z,9.10
2023-03-25T07:48:19.237Z,5.90
2023-03-25T07:49:19.218Z,6.60
2023-03-25T07:50:19.202Z,5.80
2023-03-25T07:51:19.211Z,5.90
2023-03-25T07:52:19.179Z,4.80
2023-03-25T07:53:19.185Z,7.80
2023-03-25T07:54:19.166Z,5.60
2023-03-25T07:55:19.136Z,6.20
2023-03-25T07:56:19.115Z,6.60
2023-03-25T07:57:19.123Z,6.60
2023-03-25T07:58:19.088Z,5.20
2023-03-25T07:59:19.114Z,5.00
2023-03-25T08:00:19.081Z,6.00
2023-03-25T08:01:19.067Z,6.20
2023-03-25T08:02:19.091Z,5.60
2023-03-25T08:03:19.117Z,3.20
2023-03-25T08:04:19.070Z,6.60
2023-03-25T08:05:19.034Z,6.30
2023-03-25T08:06:19.031Z,5.80
2023-03-25T08:07:19.016Z,6.30
2023-03-25T08:08:19.018Z,4.10
2023-03-25T08:09:18.995Z,4.70
2023-03-25T08:10:18.973Z,4.50
2023-03-25T08:11:18.938Z,6.50
2023-03-25T08:12:18.935Z,7.40
2023-03-25T08:13:18.911Z,6.40
2023-03-25T08:14:18.954Z,5.30
2023-03-25T08:15:18.895Z,9.00
2023-03-25T08:16:18.941Z,7.20
2023-03-25T08:17:18.908Z,4.80
2023-03-25T08:18:18.858Z,5.20
2023-03-25T08:19:18.905Z,4.30
2023-03-25T08:20:18.850Z,4.80
2023-03-25T08:21:18.828Z,4.00
2023-03-25T08:22:18.815Z,4.80
2023-03-25T08:23:19.766Z,7.70
2023-03-25T08:24:18.823Z,6.30
2023-03-25T08:25:18.819Z,4.80
2023-03-25T08:26:18.848Z,4.70
2023-03-25T08:27:18.767Z,5.70
2023-03-25T08:28:18.781Z,3.30
2023-03-25T08:29:18.768Z,6.30
2023-03-25T08:30:18.765Z,6.20
2023-03-25T08:31:18.740Z,7.40
2023-03-25T08:32:18.706Z,5.40
2023-03-25T08:33:18.718Z,5.60
2023-03-25T08:34:18.690Z,5.10
2023-03-25T08:35:18.688Z,5.00
2023-03-25T08:36:19.465Z,4.90
2023-03-25T08:37:18.683Z,5.10
2023-03-25T08:38:18.656Z,5.20
2023-03-25T08:39:18.654Z,4.80
2023-03-25T08:40:18.627Z,5.50
2023-03-25T08:41:18.592Z,5.20
2023-03-25T08:42:18.587Z,5.90
2023-03-25T08:43:18.582Z,5.50
2023-03-25T08:44:18.618Z,5.00
2023-03-25T08:45:18.587Z,5.60
2023-03-25T08:46:18.570Z,6.40
2023-03-25T08:47:18.526Z,6.00
2023-03-25T08:48:18.545Z,6.50
2023-03-25T08:49:18.552Z,8.20
2023-03-25T08:50:18.541Z,6.70
2023-03-25T08:51:18.507Z,6.80
2023-03-25T08:52:18.485Z,5.20
2023-03-25T08:53:18.482Z,4.90
2023-03-25T08:54:18.499Z,6.10
2023-03-25T08:55:18.469Z,8.90
2023-03-25T08:56:18.436Z,6.80
2023-03-25T08:57:18.439Z,5.80
2023-03-25T08:58:18.429Z,5.20
2023-03-25T08:59:18.398Z,5.90
2023-03-25T09:00:18.382Z,5.90
2023-03-25T09:01:18.403Z,4.80
2023-03-25T09:02:18.353Z,3.70
2023-03-25T09:03:18.358Z,5.40
2023-03-25T09:04:18.368Z,7.40
2023-03-25T09:05:18.399Z,3.20
2023-03-25T09:06:18.383Z,3.40
2023-03-25T09:07:18.318Z,4.30
2023-03-25T09:08:18.318Z,3.80
2023-03-25T09:09:18.309Z,5.00
2023-03-25T09:10:18.272Z,4.40
2023-03-25T09:11:30.165Z,3.40
2023-03-25T09:12:18.287Z,4.20
2023-03-25T09:13:18.250Z,4.60
2023-03-25T09:14:18.244Z,2.80
2023-03-25T09:15:18.262Z,4.10
2023-03-25T09:16:18.256Z,4.10
2023-03-25T09:17:18.210Z,3.00
2023-03-25T09:18:18.187Z,3.60
2023-03-25T09:19:18.270Z,3.30
2023-03-25T09:20:18.159Z,4.80
2023-03-25T09:21:18.171Z,3.50
2023-03-25T09:22:18.176Z,3.00
2023-03-25T09:23:18.148Z,3.80
2023-03-25T09:24:18.159Z,3.70
2023-03-25T09:25:18.121Z,6.00
2023-03-25T09:26:18.123Z,3.20
2023-03-25T09:27:18.114Z,4.20
2023-03-25T09:28:18.083Z,3.30
2023-03-25T09:29:18.085Z,3.70
2023-03-25T09:30:18.078Z,3.50
2023-03-25T09:31:18.086Z,2.20
2023-03-25T09:32:18.049Z,2.60
2023-03-25T09:33:18.047Z,1.80
2023-03-25T09:34:18.040Z,1.90
2023-03-25T09:35:18.017Z,2.00
2023-03-25T09:36:18.010Z,2.30
2023-03-25T09:37:18.034Z,1.90
2023-03-25T09:38:17.956Z,1.00
2023-03-25T09:39:17.983Z,2.80
2023-03-25T09:40:17.948Z,2.00
2023-03-25T09:41:17.962Z,1.20
2023-03-25T09:42:17.924Z,1.90
2023-03-25T09:43:17.955Z,1.60
2023-03-25T09:44:17.932Z,3.00
2023-03-25T09:45:17.909Z,3.00
2023-03-25T09:46:24.473Z,1.60
2023-03-25T09:47:17.863Z,1.50
2023-03-25T09:48:17.855Z,1.10
2023-03-25T09:49:17.852Z,1.90
2023-03-25T09:50:17.835Z,1.40
2023-03-25T09:51:17.817Z,1.70
2023-03-25T09:52:17.808Z,3.40
2023-03-25T09:53:22.017Z,1.80
2023-03-25T09:54:17.845Z,2.70
2023-03-25T09:55:17.772Z,2.40
2023-03-25T09:56:17.771Z,3.20
2023-03-25T09:57:17.764Z,1.30
2023-03-25T09:58:17.890Z,8.50
2023-03-25T09:59:17.747Z,2.60
2023-03-25T10:00:17.727Z,2.90
2023-03-25T10:01:17.816Z,2.10
2023-03-25T10:02:17.769Z,3.60
2023-03-25T10:03:17.770Z,2.20
2023-03-25T10:04:17.687Z,3.20
2023-03-25T10:05:17.697Z,3.80
2023-03-25T10:06:17.649Z,3.30
2023-03-25T10:07:17.646Z,4.60
2023-03-25T10:08:17.636Z,4.90
2023-03-25T10:09:17.648Z,4.20
2023-03-25T10:10:17.608Z,5.80
2023-03-25T10:11:17.615Z,3.00
2023-03-25T10:12:17.600Z,2.80
2023-03-25T10:13:19.748Z,4.40
2023-03-25T10:14:17.609Z,4.30
2023-03-25T10:15:17.551Z,4.30
2023-03-25T10:16:17.571Z,4.00
2023-03-25T10:17:17.542Z,6.20
2023-03-25T10:18:17.513Z,4.50
2023-03-25T10:19:17.541Z,3.30
2023-03-25T10:20:17.498Z,4.80
2023-03-25T10:21:17.480Z,5.10
2023-03-25T10:22:17.498Z,4.80
2023-03-25T10:23:17.482Z,4.00
2023-03-25T10:24:17.497Z,4.40
2023-03-25T10:25:17.459Z,7.50
2023-03-25T10:26:17.430Z,5.70
2023-03-25T10:27:17.437Z,5.30
2023-03-25T10:28:17.422Z,5.80
2023-03-25T10:29:17.431Z,4.60
2023-03-25T10:30:17.465Z,4.70
2023-03-25T10:31:17.431Z,6.80
2023-03-25T10:32:17.376Z,4.20
2023-03-25T10:33:17.348Z,6.30
2023-03-25T10:34:17.346Z,5.30
2023-03-25T10:35:17.375Z,4.00
2023-03-25T10:36:17.331Z,6.40
2023-03-25T10:37:17.342Z,4.20
2023-03-25T10:38:17.295Z,5.10
2023-03-25T10:39:17.324Z,4.30
2023-03-25T10:40:18.650Z,5.30
2023-03-25T10:41:17.293Z,6.90
2023-03-25T10:42:17.258Z,4.70
2023-03-25T10:43:17.247Z,5.60
2023-03-25T10:44:17.263Z,2.80
2023-03-25T10:45:17.215Z,4.20
2023-03-25T10:46:17.287Z,7.40
2023-03-25T10:47:17.214Z,5.10
2023-03-25T10:48:17.204Z,6.30
2023-03-25T10:49:17.198Z,4.00
2023-03-25T10:50:17.161Z,6.20
2023-03-25T10:51:17.172Z,4.20
2023-03-25T10:52:17.147Z,7.10
2023-03-25T10:53:17.129Z,5.50
2023-03-25T10:54:17.133Z,5.30
2023-03-25T10:55:17.105Z,4.80
2023-03-25T10:56:17.087Z,5.70
2023-03-25T10:57:17.076Z,3.60
2023-03-25T10:58:17.076Z,6.50
2023-03-25T10:59:18.404Z,6.90
2023-03-25T11:00:17.078Z,6.40
2023-03-25T11:01:17.082Z,6.00
2023-03-25T11:02:17.065Z,8.30
2023-03-25T11:03:17.057Z,5.70
2023-03-25T11:04:17.025Z,4.40
2023-03-25T11:05:18.740Z,7.50
2023-03-25T11:06:17.005Z,5.20
2023-03-25T11:07:16.975Z,6.40
2023-03-25T11:08:24.490Z,5.80
2023-03-25T11:09:16.951Z,6.20
2023-03-25T11:10:16.950Z,7.00
2023-03-25T11:11:16.921Z,6.00
2023-03-25T11:12:16.922Z,5.90
2023-03-25T11:13:16.901Z,6.10
2023-03-25T11:14:16.927Z,4.70
2023-03-25T11:15:16.898Z,4.70
2023-03-25T11:16:16.951Z,7.10
2023-03-25T11:17:16.849Z,5.30
2023-03-25T11:18:16.892Z,5.30
2023-03-25T11:19:16.823Z,8.10
2023-03-25T11:20:16.836Z,3.90
2023-03-25T11:21:16.810Z,4.20
2023-03-25T11:22:16.797Z,4.60
2023-03-25T11:23:16.787Z,5.30
2023-03-25T11:24:16.780Z,4.90
2023-03-25T11:25:16.801Z,6.50
2023-03-25T11:26:16.781Z,5.60
2023-03-25T11:27:16.761Z,6.20
2023-03-25T11:28:16.760Z,2.70
2023-03-25T11:29:16.753Z,4.60
2023-03-25T11:30:16.723Z,2.90
2023-03-25T11:31:16.740Z,3.70
2023-03-25T11:32:16.691Z,3.70
2023-03-25T11:33:16.713Z,2.60
2023-03-25T11:34:16.701Z,2.90
2023-03-25T11:35:16.694Z,3.60
2023-03-25T11:36:16.648Z,3.40
2023-03-25T11:37:16.635Z,5.30
2023-03-25T11:38:16.674Z,2.80
2023-03-25T11:39:16.615Z,5.00
2023-03-25T11:40:16.629Z,1.60
2023-03-25T11:41:16.590Z,4.20
2023-03-25T11:42:16.572Z,2.30
2023-03-25T11:43:16.561Z,2.40
2023-03-25T11:44:16.550Z,3.10
2023-03-25T11:45:16.575Z,4.10
2023-03-25T11:46:16.563Z,2.90
2023-03-25T11:47:16.526Z,3.80
2023-03-25T11:48:16.587Z,3.50
2023-03-25T11:49:16.494Z,2.50
2023-03-25T11:50:16.522Z,1.90
2023-03-25T11:51:16.476Z,2.40
2023-03-25T11:52:16.471Z,2.90
2023-03-25T11:53:16.471Z,2.80
2023-03-25T11:54:16.439Z,2.10
2023-03-25T11:55:16.444Z,2.50
2023-03-25T11:56:16.431Z,2.30
2023-03-25T11:57:16.424Z,2.30
2023-03-25T11:58:16.407Z,1.60
2023-03-25T11:59:16.391Z,2.90
2023-03-25T12:00:16.408Z,1.90
2023-03-25T12:01:16.362Z,1.20
2023-03-25T12:02:16.365Z,2.80
2023-03-25T12:03:17.689Z,1.60
2023-03-25T12:04:16.331Z,1.80
2023-03-25T12:05:16.336Z,3.10
2023-03-25T12:06:16.332Z,2.50
2023-03-25T12:07:16.338Z,3.60
2023-03-25T12:08:16.318Z,2.10
2023-03-25T12:09:16.277Z,1.90
2023-03-25T12:10:16.352Z,2.10
2023-03-25T12:11:16.259Z,3.40
2023-03-25T12:12:16.255Z,2.20
2023-03-25T12:13:16.231Z,3.80
2023-03-25T12:14:16.235Z,3.30
2023-03-25T12:15:16.228Z,3.50
2023-03-25T12:16:16.233Z,4.50
2023-03-25T12:17:16.198Z,3.30
2023-03-25T12:18:16.187Z,3.90
2023-03-25T12:19:16.169Z,4.40
2023-03-25T12:20:16.291Z,4.00
2023-03-25T12:21:16.144Z,4.30
2023-03-25T12:22:16.139Z,5.00
2023-03-25T12:23:16.135Z,5.30
2023-03-25T12:24:16.108Z,4.80
2023-03-25T12:25:16.121Z,5.50
2023-03-25T12:26:16.103Z,5.20
2023-03-25T12:27:16.076Z,4.30
2023-03-25T12:28:16.148Z,3.90
2023-03-25T12:29:16.057Z,5.20
2023-03-25T12:30:16.084Z,5.90
2023-03-25T12:31:16.074Z,3.10
2023-03-25T12:32:16.025Z,4.60
2023-03-25T12:33:16.008Z,4.60
2023-03-25T12:34:16.009Z,3.90
2023-03-25T12:35:16.044Z,3.50
2023-03-25T12:36:15.974Z,3.40
2023-03-25T12:37:15.963Z,4.50
2023-03-25T12:38:15.948Z,4.10
2023-03-25T12:39:15.938Z,5.00
2023-03-25T12:40:16.027Z,4.90
2023-03-25T12:41:15.924Z,3.80
2023-03-25T12:42:15.929Z,6.20
2023-03-25T12:43:15.899Z,6.20
2023-03-25T12:44:15.897Z,6.90
2023-03-25T12:45:15.957Z,5.90
2023-03-25T12:46:16.066Z,5.50
2023-03-25T12:47:15.854Z,5.90
2023-03-25T12:48:15.876Z,7.50
2023-03-25T12:49:15.850Z,4.20
2023-03-25T12:50:15.848Z,4.70
2023-03-25T12:51:15.826Z,6.30
2023-03-25T12:52:15.789Z,6.10
2023-03-25T12:53:15.782Z,4.70
2023-03-25T12:54:15.773Z,5.20
2023-03-25T12:55:15.782Z,5.90
2023-03-25T12:56:15.775Z,6.90
2023-03-25T12:57:15.750Z,6.80
2023-03-25T12:58:15.732Z,3.70
2023-03-25T12:59:15.717Z,5.20
2023-03-25T13:00:15.861Z,6.60
2023-03-25T13:01:15.759Z,6.10
2023-03-25T13:02:15.772Z,6.20
2023-03-25T13:03:15.687Z,7.10
2023-03-25T13:04:15.653Z,9.30
2023-03-25T13:05:15.678Z,5.80
2023-03-25T13:06:15.636Z,7.00
2023-03-25T13:07:15.640Z,6.00
2023-03-25T13:08:15.625Z,6.40
2023-03-25T13:09:15.606Z,4.10
2023-03-25T13:10:15.630Z,6.40
2023-03-25T13:11:15.578Z,7.10
2023-03-25T13:12:15.582Z,5.30
2023-03-25T13:13:15.565Z,4.90
2023-03-25T13:14:15.557Z,5.80
2023-03-25T13:15:21.803Z,8.60
2023-03-25T13:16:15.579Z,6.70
2023-03-25T13:17:15.535Z,6.50